sensor_id;sensor_type;location;lat;lon;timestamp;pressure;altitude;pressure_sealevel;temperature;humidity
50430;BME280;36359;41.556;-8.418;2023-10-31T00:00:23;99937.19;;;13.90;100.00
50430;BME280;36359;41.556;-8.418;2023-10-31T00:05:21;99936.38;;;13.27;100.00
50430;BME280;36359;41.556;-8.418;2023-10-31T00:07:46;99940.88;;;13.43;100.00
50430;BME280;36359;41.556;-8.418;2023-10-31T00:10:12;99945.66;;;13.40;100.00
50430;BME280;36359;41.556;-8.418;2023-10-31T00:12:38;99948.09;;;13.27;100.00
50430;BME280;36359;41.556;-8.418;2023-10-31T00:15:05;99949.78;;;13.20;100.00
50430;BME280;36359;41.556;-8.418;2023-10-31T00:17:31;99943.97;;;13.23;100.00
50430;BME280;36359;41.556;-8.418;2023-10-31T00:19:56;99949.66;;;13.13;100.00
50430;BME280;36359;41.556;-8.418;2023-10-31T00:22:22;99952.03;;;13.08;100.00
50430;BME280;36359;41.556;-8.418;2023-10-31T00:24:48;99963.06;;;13.23;100.00
50430;BME280;36359;41.556;-8.418;2023-10-31T00:27:14;99960.00;;;13.26;100.00
50430;BME280;36359;41.556;-8.418;2023-10-31T00:29:41;99959.97;;;13.34;100.00
50430;BME280;36359;41.556;-8.418;2023-10-31T00:32:06;99958.56;;;13.47;100.00
50430;BME280;36359;41.556;-8.418;2023-10-31T00:34:33;99961.69;;;13.35;100.00
50430;BME280;36359;41.556;-8.418;2023-10-31T00:36:58;99964.59;;;13.34;100.00
50430;BME280;36359;41.556;-8.418;2023-10-31T00:39:24;99958.28;;;13.33;100.00
50430;BME280;36359;41.556;-8.418;2023-10-31T00:41:50;99960.16;;;13.25;100.00
50430;BME280;36359;41.556;-8.418;2023-10-31T00:44:15;99964.81;;;13.16;100.00
50430;BME280;36359;41.556;-8.418;2023-10-31T00:46:41;99956.66;;;13.00;100.00
50430;BME280;36359;41.556;-8.418;2023-10-31T00:49:07;99954.13;;;12.98;100.00
50430;BME280;36359;41.556;-8.418;2023-10-31T00:51:34;99957.88;;;12.97;100.00
50430;BME280;36359;41.556;-8.418;2023-10-31T00:53:59;99959.78;;;12.88;100.00
50430;BME280;36359;41.556;-8.418;2023-10-31T00:56:25;99957.69;;;12.99;100.00
50430;BME280;36359;41.556;-8.418;2023-10-31T00:58:51;99953.44;;;13.04;100.00
50430;BME280;36359;41.556;-8.418;2023-10-31T01:01:16;99958.66;;;13.14;100.00
50430;BME280;36359;41.556;-8.418;2023-10-31T01:03:42;99952.72;;;13.10;100.00
50430;BME280;36359;41.556;-8.418;2023-10-31T01:06:08;99953.56;;;13.11;100.00
50430;BME280;36359;41.556;-8.418;2023-10-31T01:08:34;99951.88;;;13.10;100.00
50430;BME280;36359;41.556;-8.418;2023-10-31T01:11:00;99954.22;;;13.21;100.00
50430;BME280;36359;41.556;-8.418;2023-10-31T01:13:26;99964.25;;;13.21;100.00
50430;BME280;36359;41.556;-8.418;2023-10-31T01:15:51;99973.34;;;13.05;100.00
50430;BME280;36359;41.556;-8.418;2023-10-31T01:18:17;99966.63;;;12.68;100.00
50430;BME280;36359;41.556;-8.418;2023-10-31T01:20:43;99961.53;;;12.40;100.00
50430;BME280;36359;41.556;-8.418;2023-10-31T01:23:09;99961.47;;;12.81;100.00
50430;BME280;36359;41.556;-8.418;2023-10-31T01:25:34;99950.91;;;12.94;100.00
50430;BME280;36359;41.556;-8.418;2023-10-31T01:28:00;99963.97;;;13.07;100.00
50430;BME280;36359;41.556;-8.418;2023-10-31T01:30:26;99960.06;;;13.10;100.00
50430;BME280;36359;41.556;-8.418;2023-10-31T01:32:51;99963.97;;;13.07;100.00
50430;BME280;36359;41.556;-8.418;2023-10-31T01:35:17;99953.44;;;12.96;100.00
50430;BME280;36359;41.556;-8.418;2023-10-31T01:37:43;99958.03;;;13.04;100.00
50430;BME280;36359;41.556;-8.418;2023-10-31T01:40:12;99961.59;;;13.12;100.00
50430;BME280;36359;41.556;-8.418;2023-10-31T01:42:38;99957.81;;;13.30;100.00
50430;BME280;36359;41.556;-8.418;2023-10-31T01:45:04;99972.97;;;13.16;100.00
50430;BME280;36359;41.556;-8.418;2023-10-31T01:47:30;99974.78;;;13.40;100.00
50430;BME280;36359;41.556;-8.418;2023-10-31T01:49:57;99970.22;;;13.24;100.00
50430;BME280;36359;41.556;-8.418;2023-10-31T01:52:23;99973.97;;;13.31;100.00
50430;BME280;36359;41.556;-8.418;2023-10-31T01:54:49;99972.09;;;13.24;100.00
50430;BME280;36359;41.556;-8.418;2023-10-31T01:57:15;99976.19;;;13.28;100.00
50430;BME280;36359;41.556;-8.418;2023-10-31T01:59:41;99968.72;;;13.30;100.00
50430;BME280;36359;41.556;-8.418;2023-10-31T02:02:07;99966.50;;;13.25;100.00
50430;BME280;36359;41.556;-8.418;2023-10-31T02:04:33;99961.72;;;13.19;100.00
50430;BME280;36359;41.556;-8.418;2023-10-31T02:06:59;99968.50;;;13.23;100.00
50430;BME280;36359;41.556;-8.418;2023-10-31T02:09:25;99968.13;;;13.43;100.00
50430;BME280;36359;41.556;-8.418;2023-10-31T02:11:52;99971.59;;;13.20;100.00
50430;BME280;36359;41.556;-8.418;2023-10-31T02:14:19;99966.13;;;13.28;100.00
50430;BME280;36359;41.556;-8.418;2023-10-31T02:16:44;99969.47;;;13.47;100.00
50430;BME280;36359;41.556;-8.418;2023-10-31T02:19:12;99972.16;;;13.55;100.00
50430;BME280;36359;41.556;-8.418;2023-10-31T02:21:40;99974.25;;;13.45;100.00
50430;BME280;36359;41.556;-8.418;2023-10-31T02:24:06;99965.06;;;13.37;100.00
50430;BME280;36359;41.556;-8.418;2023-10-31T02:26:33;99968.06;;;13.59;100.00
50430;BME280;36359;41.556;-8.418;2023-10-31T02:29:01;99961.97;;;13.49;100.00
50430;BME280;36359;41.556;-8.418;2023-10-31T02:31:27;99963.63;;;13.58;100.00
50430;BME280;36359;41.556;-8.418;2023-10-31T02:33:53;99966.59;;;13.40;100.00
50430;BME280;36359;41.556;-8.418;2023-10-31T02:36:19;99972.13;;;13.63;100.00
50430;BME280;36359;41.556;-8.418;2023-10-31T02:38:45;99971.34;;;13.46;100.00
50430;BME280;36359;41.556;-8.418;2023-10-31T02:41:13;99968.28;;;13.41;100.00
50430;BME280;36359;41.556;-8.418;2023-10-31T02:43:39;99966.50;;;13.25;100.00
50430;BME280;36359;41.556;-8.418;2023-10-31T02:46:05;99971.34;;;13.46;100.00
50430;BME280;36359;41.556;-8.418;2023-10-31T02:48:31;99971.09;;;13.16;100.00
50430;BME280;36359;41.556;-8.418;2023-10-31T02:51:04;99962.09;;;13.08;100.00
50430;BME280;36359;41.556;-8.418;2023-10-31T02:53:30;99957.97;;;13.20;100.00
50430;BME280;36359;41.556;-8.418;2023-10-31T02:55:56;99963.03;;;13.39;100.00
50430;BME280;36359;41.556;-8.418;2023-10-31T02:58:21;99959.28;;;13.40;100.00
50430;BME280;36359;41.556;-8.418;2023-10-31T03:00:47;99966.25;;;13.43;100.00
50430;BME280;36359;41.556;-8.418;2023-10-31T03:03:13;99959.56;;;13.54;100.00
50430;BME280;36359;41.556;-8.418;2023-10-31T03:05:39;99960.19;;;13.64;100.00
50430;BME280;36359;41.556;-8.418;2023-10-31T03:08:04;99956.66;;;13.55;100.00
50430;BME280;36359;41.556;-8.418;2023-10-31T03:10:30;99957.56;;;13.48;100.00
50430;BME280;36359;41.556;-8.418;2023-10-31T03:12:56;99955.38;;;13.35;100.00
50430;BME280;36359;41.556;-8.418;2023-10-31T03:15:22;99953.53;;;13.19;100.00
50430;BME280;36359;41.556;-8.418;2023-10-31T03:17:47;99949.16;;;13.10;100.00
50430;BME280;36359;41.556;-8.418;2023-10-31T03:20:13;99944.75;;;13.09;100.00
50430;BME280;36359;41.556;-8.418;2023-10-31T03:22:39;99941.66;;;13.12;100.00
50430;BME280;36359;41.556;-8.418;2023-10-31T03:25:05;99937.78;;;13.06;100.00
50430;BME280;36359;41.556;-8.418;2023-10-31T03:27:31;99940.84;;;13.03;100.00
50430;BME280;36359;41.556;-8.418;2023-10-31T03:29:57;99939.13;;;13.02;100.00
50430;BME280;36359;41.556;-8.418;2023-10-31T03:32:23;99937.69;;;12.67;100.00
50430;BME280;36359;41.556;-8.418;2023-10-31T03:34:49;99935.81;;;12.67;100.00
50430;BME280;36359;41.556;-8.418;2023-10-31T03:37:14;99932.25;;;12.67;100.00
50430;BME280;36359;41.556;-8.418;2023-10-31T03:39:40;99935.41;;;13.03;100.00
50430;BME280;36359;41.556;-8.418;2023-10-31T03:42:06;99939.44;;;13.15;100.00
50430;BME280;36359;41.556;-8.418;2023-10-31T03:44:32;99943.84;;;13.16;100.00
50430;BME280;36359;41.556;-8.418;2023-10-31T03:46:57;99941.84;;;13.10;100.00
50430;BME280;36359;41.556;-8.418;2023-10-31T03:49:23;99935.06;;;13.06;100.00
50430;BME280;36359;41.556;-8.418;2023-10-31T03:51:49;99940.31;;;13.08;100.00
50430;BME280;36359;41.556;-8.418;2023-10-31T03:54:15;99937.91;;;13.13;100.00
50430;BME280;36359;41.556;-8.418;2023-10-31T03:56:42;99943.34;;;13.21;100.00
50430;BME280;36359;41.556;-8.418;2023-10-31T03:59:08;99937.59;;;13.08;100.00
50430;BME280;36359;41.556;-8.418;2023-10-31T04:01:34;99942.03;;;13.01;100.00
50430;BME280;36359;41.556;-8.418;2023-10-31T04:04:00;99943.09;;;12.91;100.00
50430;BME280;36359;41.556;-8.418;2023-10-31T04:06:26;99929.50;;;12.83;100.00
50430;BME280;36359;41.556;-8.418;2023-10-31T04:08:52;99939.34;;;12.84;100.00
50430;BME280;36359;41.556;-8.418;2023-10-31T04:11:17;99935.28;;;12.80;100.00
50430;BME280;36359;41.556;-8.418;2023-10-31T04:13:43;99938.19;;;12.70;100.00
50430;BME280;36359;41.556;-8.418;2023-10-31T04:16:09;99924.81;;;12.44;100.00
50430;BME280;36359;41.556;-8.418;2023-10-31T04:18:36;99924.44;;;12.64;100.00
50430;BME280;36359;41.556;-8.418;2023-10-31T04:21:02;99927.78;;;12.82;100.00
50430;BME280;36359;41.556;-8.418;2023-10-31T04:23:28;99928.78;;;12.89;100.00
50430;BME280;36359;41.556;-8.418;2023-10-31T04:25:54;99930.97;;;12.94;100.00
50430;BME280;36359;41.556;-8.418;2023-10-31T04:28:20;99933.19;;;12.99;100.00
50430;BME280;36359;41.556;-8.418;2023-10-31T04:30:46;99932.69;;;12.95;100.00
50430;BME280;36359;41.556;-8.418;2023-10-31T04:33:11;99930.50;;;12.82;100.00
50430;BME280;36359;41.556;-8.418;2023-10-31T04:35:37;99935.56;;;13.02;100.00
50430;BME280;36359;41.556;-8.418;2023-10-31T04:38:03;99927.13;;;12.72;100.00
50430;BME280;36359;41.556;-8.418;2023-10-31T04:40:28;99926.09;;;12.81;100.00
50430;BME280;36359;41.556;-8.418;2023-10-31T04:42:54;99924.16;;;13.06;100.00
50430;BME280;36359;41.556;-8.418;2023-10-31T04:45:20;99924.91;;;12.84;100.00
50430;BME280;36359;41.556;-8.418;2023-10-31T04:47:46;99932.56;;;12.88;100.00
50430;BME280;36359;41.556;-8.418;2023-10-31T04:50:12;99938.63;;;12.99;100.00
50430;BME280;36359;41.556;-8.418;2023-10-31T04:52:38;99938.28;;;13.02;100.00
50430;BME280;36359;41.556;-8.418;2023-10-31T04:55:03;99938.06;;;13.11;100.00
50430;BME280;36359;41.556;-8.418;2023-10-31T04:57:29;99942.41;;;12.98;100.00
50430;BME280;36359;41.556;-8.418;2023-10-31T04:59:55;99934.78;;;12.77;100.00
50430;BME280;36359;41.556;-8.418;2023-10-31T05:02:23;99938.84;;;12.89;100.00
50430;BME280;36359;41.556;-8.418;2023-10-31T05:04:49;99942.06;;;12.84;100.00
50430;BME280;36359;41.556;-8.418;2023-10-31T05:07:19;99937.78;;;12.98;100.00
50430;BME280;36359;41.556;-8.418;2023-10-31T05:09:45;99935.94;;;12.90;100.00
50430;BME280;36359;41.556;-8.418;2023-10-31T05:12:11;99934.56;;;12.94;100.00
50430;BME280;36359;41.556;-8.418;2023-10-31T05:14:37;99938.84;;;12.89;100.00
50430;BME280;36359;41.556;-8.418;2023-10-31T05:17:02;99939.13;;;13.02;100.00
50430;BME280;36359;41.556;-8.418;2023-10-31T05:19:29;99935.91;;;13.07;100.00
50430;BME280;36359;41.556;-8.418;2023-10-31T05:21:55;99936.72;;;13.15;100.00
50430;BME280;36359;41.556;-8.418;2023-10-31T05:24:21;99929.59;;;13.06;100.00
50430;BME280;36359;41.556;-8.418;2023-10-31T05:26:46;99930.47;;;12.99;100.00
50430;BME280;36359;41.556;-8.418;2023-10-31T05:29:12;99927.41;;;12.93;100.00
50430;BME280;36359;41.556;-8.418;2023-10-31T05:31:38;99921.50;;;12.82;100.00
50430;BME280;36359;41.556;-8.418;2023-10-31T05:34:04;99927.13;;;12.72;100.00
50430;BME280;36359;41.556;-8.418;2023-10-31T05:36:30;99928.59;;;12.91;100.00
50430;BME280;36359;41.556;-8.418;2023-10-31T05:38:56;99930.78;;;13.12;100.00
50430;BME280;36359;41.556;-8.418;2023-10-31T05:41:21;99934.88;;;13.00;100.00
50430;BME280;36359;41.556;-8.418;2023-10-31T05:43:47;99931.84;;;12.94;100.00
50430;BME280;36359;41.556;-8.418;2023-10-31T05:46:13;99924.88;;;12.92;100.00
50430;BME280;36359;41.556;-8.418;2023-10-31T05:48:41;99931.44;;;13.14;100.00
50430;BME280;36359;41.556;-8.418;2023-10-31T05:51:14;99924.78;;;13.16;100.00
50430;BME280;36359;41.556;-8.418;2023-10-31T05:53:41;99923.34;;;12.98;100.00
50430;BME280;36359;41.556;-8.418;2023-10-31T05:56:08;99928.09;;;12.95;100.00
50430;BME280;36359;41.556;-8.418;2023-10-31T05:58:34;99924.69;;;12.93;100.00
50430;BME280;36359;41.556;-8.418;2023-10-31T06:01:00;99930.47;;;12.90;100.00
50430;BME280;36359;41.556;-8.418;2023-10-31T06:03:26;99925.16;;;13.05;100.00
50430;BME280;36359;41.556;-8.418;2023-10-31T06:05:51;99929.53;;;13.23;100.00
50430;BME280;36359;41.556;-8.418;2023-10-31T06:08:17;99926.19;;;13.04;100.00
50430;BME280;36359;41.556;-8.418;2023-10-31T06:10:43;99921.88;;;12.62;100.00
50430;BME280;36359;41.556;-8.418;2023-10-31T06:13:08;99925.81;;;12.52;100.00
50430;BME280;36359;41.556;-8.418;2023-10-31T06:15:35;99928.88;;;12.40;100.00
50430;BME280;36359;41.556;-8.418;2023-10-31T06:18:00;99935.34;;;12.47;100.00
50430;BME280;36359;41.556;-8.418;2023-10-31T06:20:26;99926.44;;;12.78;100.00
50430;BME280;36359;41.556;-8.418;2023-10-31T06:22:52;99938.63;;;12.99;100.00
50430;BME280;36359;41.556;-8.418;2023-10-31T06:25:17;99930.66;;;12.97;100.00
50430;BME280;36359;41.556;-8.418;2023-10-31T06:27:43;99928.44;;;12.92;100.00
50430;BME280;36359;41.556;-8.418;2023-10-31T06:30:09;99931.84;;;12.94;100.00
50430;BME280;36359;41.556;-8.418;2023-10-31T06:32:35;99927.59;;;12.92;100.00
50430;BME280;36359;41.556;-8.418;2023-10-31T06:35:02;99925.34;;;13.04;100.00
50430;BME280;36359;41.556;-8.418;2023-10-31T06:37:31;99929.78;;;12.96;100.00
50430;BME280;36359;41.556;-8.418;2023-10-31T06:39:56;99938.78;;;13.05;100.00
50430;BME280;36359;41.556;-8.418;2023-10-31T06:42:22;99926.19;;;13.04;100.00
50430;BME280;36359;41.556;-8.418;2023-10-31T06:44:48;99939.09;;;13.10;100.00
50430;BME280;36359;41.556;-8.418;2023-10-31T06:47:13;99936.88;;;13.14;100.00
50430;BME280;36359;41.556;-8.418;2023-10-31T06:49:40;99929.41;;;13.08;100.00
50430;BME280;36359;41.556;-8.418;2023-10-31T06:52:05;99941.69;;;13.04;100.00
50430;BME280;36359;41.556;-8.418;2023-10-31T06:54:31;99935.81;;;13.23;100.00
50430;BME280;36359;41.556;-8.418;2023-10-31T06:56:57;99939.78;;;13.12;100.00
50430;BME280;36359;41.556;-8.418;2023-10-31T06:59:23;99934.72;;;13.01;100.00
50430;BME280;36359;41.556;-8.418;2023-10-31T07:01:48;99943.69;;;13.18;100.00
50430;BME280;36359;41.556;-8.418;2023-10-31T07:04:14;99939.63;;;13.06;100.00
50430;BME280;36359;41.556;-8.418;2023-10-31T07:06:42;99944.44;;;12.95;100.00
50430;BME280;36359;41.556;-8.418;2023-10-31T07:09:07;99943.09;;;12.91;100.00
50430;BME280;36359;41.556;-8.418;2023-10-31T07:11:33;99949.03;;;12.95;100.00
50430;BME280;36359;41.556;-8.418;2023-10-31T07:14:01;99950.75;;;12.88;100.00
50430;BME280;36359;41.556;-8.418;2023-10-31T07:16:28;99949.91;;;12.87;100.00
50430;BME280;36359;41.556;-8.418;2023-10-31T07:18:53;99956.38;;;12.78;100.00
50430;BME280;36359;41.556;-8.418;2023-10-31T07:21:19;99946.31;;;12.87;100.00
50430;BME280;36359;41.556;-8.418;2023-10-31T07:23:45;99948.47;;;13.08;100.00
50430;BME280;36359;41.556;-8.418;2023-10-31T07:26:11;99960.03;;;13.18;100.00
50430;BME280;36359;41.556;-8.418;2023-10-31T07:28:37;99949.13;;;13.18;100.00
50430;BME280;36359;41.556;-8.418;2023-10-31T07:31:03;99956.59;;;13.24;100.00
50430;BME280;36359;41.556;-8.418;2023-10-31T07:33:30;99954.56;;;13.26;100.00
50430;BME280;36359;41.556;-8.418;2023-10-31T07:35:56;99953.66;;;13.42;100.00
50430;BME280;36359;41.556;-8.418;2023-10-31T07:38:21;99957.97;;;13.28;100.00
50430;BME280;36359;41.556;-8.418;2023-10-31T07:40:47;99967.91;;;13.52;100.00
50430;BME280;36359;41.556;-8.418;2023-10-31T07:43:15;99968.94;;;13.51;100.00
50430;BME280;36359;41.556;-8.418;2023-10-31T07:45:40;99967.91;;;13.52;100.00
50430;BME280;36359;41.556;-8.418;2023-10-31T07:48:07;99979.50;;;14.08;100.00
50430;BME280;36359;41.556;-8.418;2023-10-31T07:50:33;99988.13;;;14.20;100.00
50430;BME280;36359;41.556;-8.418;2023-10-31T07:52:59;99985.84;;;14.09;100.00
50430;BME280;36359;41.556;-8.418;2023-10-31T07:55:25;99985.41;;;13.97;100.00
50430;BME280;36359;41.556;-8.418;2023-10-31T07:57:54;99977.06;;;13.91;100.00
50430;BME280;36359;41.556;-8.418;2023-10-31T08:00:20;99982.22;;;13.85;100.00
50430;BME280;36359;41.556;-8.418;2023-10-31T08:02:47;99985.81;;;13.86;100.00
50430;BME280;36359;41.556;-8.418;2023-10-31T08:05:14;99970.69;;;13.75;100.00
50430;BME280;36359;41.556;-8.418;2023-10-31T08:07:40;99976.53;;;13.95;100.00
50430;BME280;36359;41.556;-8.418;2023-10-31T08:10:06;99980.84;;;13.90;100.00
50430;BME280;36359;41.556;-8.418;2023-10-31T08:12:32;99981.75;;;14.05;100.00
50430;BME280;36359;41.556;-8.418;2023-10-31T08:14:58;99985.41;;;13.97;100.00
50430;BME280;36359;41.556;-8.418;2023-10-31T08:17:25;99993.94;;;13.94;100.00
50430;BME280;36359;41.556;-8.418;2023-10-31T08:19:52;100003.16;;;14.16;100.00
50430;BME280;36359;41.556;-8.418;2023-10-31T08:22:18;100001.91;;;14.27;100.00
50430;BME280;36359;41.556;-8.418;2023-10-31T08:24:45;100005.53;;;14.42;100.00
50430;BME280;36359;41.556;-8.418;2023-10-31T08:27:11;99993.56;;;14.43;100.00
50430;BME280;36359;41.556;-8.418;2023-10-31T08:29:38;100001.00;;;14.58;100.00
50430;BME280;36359;41.556;-8.418;2023-10-31T08:32:05;100000.72;;;14.67;100.00
50430;BME280;36359;41.556;-8.418;2023-10-31T08:34:33;100011.00;;;14.42;100.00
50430;BME280;36359;41.556;-8.418;2023-10-31T08:36:59;100009.91;;;14.28;100.00
50430;BME280;36359;41.556;-8.418;2023-10-31T08:39:26;100012.16;;;14.48;100.00
50430;BME280;36359;41.556;-8.418;2023-10-31T08:41:56;100020.34;;;14.48;100.00
50430;BME280;36359;41.556;-8.418;2023-10-31T08:44:22;100008.13;;;14.82;100.00
50430;BME280;36359;41.556;-8.418;2023-10-31T08:46:48;100016.84;;;15.00;100.00
50430;BME280;36359;41.556;-8.418;2023-10-31T08:49:16;100022.41;;;15.07;100.00
50430;BME280;36359;41.556;-8.418;2023-10-31T08:51:42;100028.34;;;15.40;100.00
50430;BME280;36359;41.556;-8.418;2023-10-31T08:54:09;100022.97;;;15.32;100.00
50430;BME280;36359;41.556;-8.418;2023-10-31T08:56:35;100028.16;;;15.27;100.00
50430;BME280;36359;41.556;-8.418;2023-10-31T08:59:01;100033.34;;;15.36;100.00
50430;BME280;36359;41.556;-8.418;2023-10-31T09:01:27;100027.28;;;15.11;100.00
50430;BME280;36359;41.556;-8.418;2023-10-31T09:03:54;100029.94;;;15.34;100.00
50430;BME280;36359;41.556;-8.418;2023-10-31T09:06:20;100026.81;;;15.52;100.00
50430;BME280;36359;41.556;-8.418;2023-10-31T09:08:46;100028.19;;;15.71;100.00
50430;BME280;36359;41.556;-8.418;2023-10-31T09:11:12;100021.09;;;15.77;100.00
50430;BME280;36359;41.556;-8.418;2023-10-31T09:13:38;100027.13;;;15.72;100.00
50430;BME280;36359;41.556;-8.418;2023-10-31T09:16:04;100027.38;;;15.92;100.00
50430;BME280;36359;41.556;-8.418;2023-10-31T09:18:30;100028.84;;;16.09;100.00
50430;BME280;36359;41.556;-8.418;2023-10-31T09:20:55;100021.44;;;16.25;100.00
50430;BME280;36359;41.556;-8.418;2023-10-31T09:23:21;100031.22;;;16.34;100.00
50430;BME280;36359;41.556;-8.418;2023-10-31T09:25:47;100029.47;;;15.75;100.00
50430;BME280;36359;41.556;-8.418;2023-10-31T09:28:13;100030.75;;;15.94;100.00
50430;BME280;36359;41.556;-8.418;2023-10-31T09:30:39;100023.97;;;15.90;100.00
50430;BME280;36359;41.556;-8.418;2023-10-31T09:33:05;100021.81;;;16.22;100.00
50430;BME280;36359;41.556;-8.418;2023-10-31T09:35:31;100022.44;;;16.39;100.00
50430;BME280;36359;41.556;-8.418;2023-10-31T09:37:56;100013.63;;;16.43;100.00
50430;BME280;36359;41.556;-8.418;2023-10-31T09:40:23;100016.28;;;16.58;100.00
50430;BME280;36359;41.556;-8.418;2023-10-31T09:42:48;100007.75;;;16.68;100.00
50430;BME280;36359;41.556;-8.418;2023-10-31T09:45:15;100019.94;;;16.87;100.00
50430;BME280;36359;41.556;-8.418;2023-10-31T09:47:41;100021.59;;;16.81;100.00
50430;BME280;36359;41.556;-8.418;2023-10-31T09:50:10;100029.13;;;16.79;100.00
50430;BME280;36359;41.556;-8.418;2023-10-31T09:52:36;100024.53;;;16.79;100.00
50430;BME280;36359;41.556;-8.418;2023-10-31T09:55:02;100021.19;;;16.84;100.00
50430;BME280;36359;41.556;-8.418;2023-10-31T09:57:29;100011.16;;;16.91;100.00
50430;BME280;36359;41.556;-8.418;2023-10-31T09:59:54;100015.69;;;16.84;100.00
50430;BME280;36359;41.556;-8.418;2023-10-31T10:02:20;100012.03;;;16.98;100.00
50430;BME280;36359;41.556;-8.418;2023-10-31T10:04:47;100016.44;;;16.99;100.00
50430;BME280;36359;41.556;-8.418;2023-10-31T10:07:15;100009.53;;;17.03;100.00
50430;BME280;36359;41.556;-8.418;2023-10-31T10:09:45;100010.97;;;16.99;100.00
50430;BME280;36359;41.556;-8.418;2023-10-31T10:12:20;100005.56;;;17.06;100.00
50430;BME280;36359;41.556;-8.418;2023-10-31T10:14:46;100015.09;;;17.17;100.00
50430;BME280;36359;41.556;-8.418;2023-10-31T10:17:22;100012.41;;;17.23;100.00
50430;BME280;36359;41.556;-8.418;2023-10-31T10:20:05;100019.88;;;17.36;100.00
50430;BME280;36359;41.556;-8.418;2023-10-31T10:22:36;100015.06;;;17.38;100.00
50430;BME280;36359;41.556;-8.418;2023-10-31T10:25:08;100016.72;;;17.39;100.00
50430;BME280;36359;41.556;-8.418;2023-10-31T10:27:34;100018.63;;;17.39;100.00
50430;BME280;36359;41.556;-8.418;2023-10-31T10:30:07;100017.13;;;17.36;100.00
50430;BME280;36359;41.556;-8.418;2023-10-31T10:32:35;100016.91;;;17.38;100.00
50430;BME280;36359;41.556;-8.418;2023-10-31T10:35:01;100019.50;;;17.46;100.00
50430;BME280;36359;41.556;-8.418;2023-10-31T10:37:27;100014.81;;;17.33;100.00
50430;BME280;36359;41.556;-8.418;2023-10-31T10:39:54;100018.75;;;17.24;100.00
50430;BME280;36359;41.556;-8.418;2023-10-31T10:44:57;100018.13;;;17.29;100.00
50430;BME280;36359;41.556;-8.418;2023-10-31T10:47:25;100021.13;;;17.34;100.00
50430;BME280;36359;41.556;-8.418;2023-10-31T10:49:54;100027.06;;;17.44;100.00
50430;BME280;36359;41.556;-8.418;2023-10-31T10:55:33;100020.41;;;17.53;100.00
50430;BME280;36359;41.556;-8.418;2023-10-31T10:58:06;100014.69;;;17.55;100.00
50430;BME280;36359;41.556;-8.418;2023-10-31T11:00:34;100019.13;;;17.56;100.00
50430;BME280;36359;41.556;-8.418;2023-10-31T11:03:01;100014.69;;;17.55;100.00
50430;BME280;36359;41.556;-8.418;2023-10-31T11:05:27;100012.84;;;17.62;100.00
50430;BME280;36359;41.556;-8.418;2023-10-31T11:07:57;100012.66;;;17.70;100.00
50430;BME280;36359;41.556;-8.418;2023-10-31T11:10:23;100006.06;;;17.58;100.00
50430;BME280;36359;41.556;-8.418;2023-10-31T11:12:49;100000.88;;;17.76;100.00
50430;BME280;36359;41.556;-8.418;2023-10-31T11:15:17;100005.38;;;17.90;100.00
50430;BME280;36359;41.556;-8.418;2023-10-31T11:17:45;99998.66;;;17.93;100.00
50430;BME280;36359;41.556;-8.418;2023-10-31T11:20:12;99994.00;;;17.93;100.00
50430;BME280;36359;41.556;-8.418;2023-10-31T11:22:44;100001.63;;;17.98;100.00
50430;BME280;36359;41.556;-8.418;2023-10-31T11:25:20;99988.31;;;17.95;100.00
50430;BME280;36359;41.556;-8.418;2023-10-31T11:27:53;99988.31;;;18.02;100.00
50430;BME280;36359;41.556;-8.418;2023-10-31T11:30:22;99984.34;;;18.11;100.00
50430;BME280;36359;41.556;-8.418;2023-10-31T11:32:52;99985.19;;;18.11;100.00
50430;BME280;36359;41.556;-8.418;2023-10-31T11:35:18;99982.00;;;18.08;100.00
50430;BME280;36359;41.556;-8.418;2023-10-31T11:37:48;99982.44;;;18.11;100.00
50430;BME280;36359;41.556;-8.418;2023-10-31T11:40:17;99976.75;;;18.13;100.00
50430;BME280;36359;41.556;-8.418;2023-10-31T11:42:50;99976.97;;;18.25;100.00
50430;BME280;36359;41.556;-8.418;2023-10-31T11:45:32;99975.72;;;18.27;100.00
50430;BME280;36359;41.556;-8.418;2023-10-31T11:47:59;99966.66;;;18.27;100.00
50430;BME280;36359;41.556;-8.418;2023-10-31T11:50:25;99956.09;;;18.24;100.00
50430;BME280;36359;41.556;-8.418;2023-10-31T11:53:04;99956.28;;;18.29;100.00
50430;BME280;36359;41.556;-8.418;2023-10-31T11:55:35;99953.97;;;18.32;100.00
50430;BME280;36359;41.556;-8.418;2023-10-31T11:58:13;99956.69;;;18.26;100.00
50430;BME280;36359;41.556;-8.418;2023-10-31T12:00:39;99966.22;;;18.30;100.00
50430;BME280;36359;41.556;-8.418;2023-10-31T12:03:05;99953.53;;;18.29;100.00
50430;BME280;36359;41.556;-8.418;2023-10-31T12:05:31;99962.00;;;18.41;100.00
50430;BME280;36359;41.556;-8.418;2023-10-31T12:07:57;99950.19;;;18.53;100.00
50430;BME280;36359;41.556;-8.418;2023-10-31T12:10:24;99946.56;;;18.53;100.00
50430;BME280;36359;41.556;-8.418;2023-10-31T12:12:53;99947.63;;;18.58;100.00
50430;BME280;36359;41.556;-8.418;2023-10-31T12:15:19;99936.88;;;18.57;100.00
50430;BME280;36359;41.556;-8.418;2023-10-31T12:17:44;99918.28;;;18.59;100.00
50430;BME280;36359;41.556;-8.418;2023-10-31T12:20:10;99907.91;;;18.61;100.00
50430;BME280;36359;41.556;-8.418;2023-10-31T12:22:36;99916.34;;;18.66;100.00
50430;BME280;36359;41.556;-8.418;2023-10-31T12:25:03;99924.19;;;18.76;100.00
50430;BME280;36359;41.556;-8.418;2023-10-31T12:27:46;99911.50;;;18.68;100.00
50430;BME280;36359;41.556;-8.418;2023-10-31T12:30:14;99902.44;;;18.74;100.00
50430;BME280;36359;41.556;-8.418;2023-10-31T12:32:41;99904.13;;;18.75;100.00
50430;BME280;36359;41.556;-8.418;2023-10-31T12:35:12;99897.09;;;18.73;100.00
50430;BME280;36359;41.556;-8.418;2023-10-31T12:37:46;99890.78;;;18.72;99.64
50430;BME280;36359;41.556;-8.418;2023-10-31T12:40:16;99885.53;;;18.77;100.00
50430;BME280;36359;41.556;-8.418;2023-10-31T12:42:43;99877.47;;;18.82;100.00